Time;durP1;ratioP1;P1;durP2;ratioP2;P2;SDS_P1;SDS_P2;PMS_P1;PMS_P2;Temp;Humidity;BMP_temperature;BMP_pressure;BME280_temperature;BME280_humidity;BME280_pressure;Samples;Min_cycle;Max_cycle;Signal;HPM_P1;HPM_P2
2022/01/25 00:24:19;;;;;;;54.67;32.97;;;4.80;99.90;;;;;;5053147;28;20045;-51
2022/01/25 00:26:48;;;;;;;59.53;34.53;;;4.80;99.90;;;;;;5052876;28;20056;-48
2022/01/25 00:29:27;;;;;;;58.08;33.65;;;4.80;99.90;;;;;;5036831;28;20106;-50
2022/01/25 00:31:53;;;;;;;56.30;32.67;;;4.80;99.90;;;;;;5052431;28;20053;-52
2022/01/25 00:34:19;;;;;;;58.83;35.25;;;4.80;99.90;;;;;;5052635;28;20150;-52
2022/01/25 00:36:45;;;;;;;54.50;33.03;;;4.70;99.90;;;;;;5079988;28;20453;-51
2022/01/25 00:39:11;;;;;;;59.92;33.33;;;4.70;99.90;;;;;;5094882;28;20059;-53
2022/01/25 00:41:36;;;;;;;58.97;34.55;;;4.70;99.90;;;;;;5094819;28;20402;-52
2022/01/25 00:44:02;;;;;;;53.03;33.03;;;4.80;99.90;;;;;;5095043;28;20386;-50
2022/01/25 00:46:29;;;;;;;52.85;32.33;;;4.70;99.90;;;;;;5094708;28;20471;-53
2022/01/25 00:49:00;;;;;;;57.05;33.97;;;4.70;99.90;;;;;;5094923;28;20160;-52
2022/01/25 00:54:09;;;;;;;58.88;34.38;;;4.80;99.90;;;;;;5094668;28;20040;-53
2022/01/25 00:56:38;;;;;;;56.67;32.55;;;4.80;99.90;;;;;;5095154;28;20039;-49
2022/01/25 00:59:06;;;;;;;58.80;33.70;;;4.80;99.90;;;;;;5094732;28;20043;-51
2022/01/25 01:01:34;;;;;;;55.97;33.42;;;4.80;99.90;;;;;;5094310;28;20040;-49
2022/01/25 01:04:00;;;;;;;58.20;32.25;;;4.70;99.90;;;;;;5093814;28;20383;-53
2022/01/25 01:06:26;;;;;;;56.92;33.72;;;4.80;99.90;;;;;;5094413;28;20032;-53
2022/01/25 01:08:52;;;;;;;58.20;32.97;;;4.80;99.90;;;;;;5094345;28;20079;-52
2022/01/25 01:11:27;;;;;;;56.30;34.05;;;4.70;99.90;;;;;;5094465;28;20048;-53
2022/01/25 01:35:25;;;;;;;57.65;32.63;;;4.80;99.90;;;;;;5094026;28;20127;-51
2022/01/25 01:40:42;;;;;;;64.38;33.60;;;4.70;99.90;;;;;;5094088;28;20097;-52
2022/01/25 01:45:55;;;;;;;58.05;33.40;;;4.80;99.90;;;;;;5114005;28;20529;-52
2022/01/25 01:48:38;;;;;;;56.25;32.42;;;4.70;99.90;;;;;;5113949;28;20043;-54
2022/01/25 01:54:09;;;;;;;53.80;33.35;;;4.70;99.90;;;;;;5031063;28;20456;-53
2022/01/25 01:56:37;;;;;;;54.75;31.75;;;4.80;99.90;;;;;;5031121;28;20049;-51
2022/01/25 01:59:06;;;;;;;59.58;34.92;;;4.80;99.90;;;;;;5014669;28;20563;-52
2022/01/25 02:01:33;;;;;;;54.83;31.90;;;4.80;99.90;;;;;;5031135;28;20041;-52
2022/01/25 02:04:00;;;;;;;57.72;34.55;;;4.70;99.90;;;;;;5030921;28;20054;-54
2022/01/25 02:06:26;;;;;;;56.55;33.47;;;4.80;99.90;;;;;;5013890;28;20102;-53
2022/01/25 02:08:52;;;;;;;52.65;31.92;;;4.80;99.90;;;;;;5030712;28;20049;-53
2022/01/25 02:11:19;;;;;;;52.22;32.50;;;4.80;99.90;;;;;;5030860;28;20061;-53
2022/01/25 02:13:46;;;;;;;52.03;32.78;;;4.80;99.90;;;;;;5030921;28;20045;-53
2022/01/25 02:16:41;;;;;;;57.70;33.83;;;4.80;99.90;;;;;;5030719;28;20523;-53
2022/01/25 02:24:32;;;;;;;52.67;33.10;;;4.70;99.90;;;;;;5030851;28;20049;-53
2022/01/25 02:26:58;;;;;;;57.78;34.00;;;4.70;99.90;;;;;;5030604;28;20046;-52
2022/01/25 02:29:24;;;;;;;56.03;33.40;;;4.70;99.90;;;;;;5063668;28;20405;-51
2022/01/25 02:31:53;;;;;;;60.15;35.47;;;4.60;99.90;;;;;;5112953;28;20090;-53
2022/01/25 02:34:19;;;;;;;60.10;35.05;;;4.70;99.90;;;;;;5112831;28;20046;-53
2022/01/25 02:36:44;;;;;;;59.20;33.33;;;4.70;99.90;;;;;;5113244;28;20035;-50
2022/01/25 02:39:10;;;;;;;59.08;35.58;;;4.70;99.90;;;;;;5113075;28;20038;-53
2022/01/25 02:41:37;;;;;;;58.50;34.42;;;4.70;99.90;;;;;;5113254;28;20086;-53
2022/01/25 02:44:04;;;;;;;60.47;35.65;;;4.70;99.90;;;;;;5113144;28;20051;-53
2022/01/25 02:48:59;;;;;;;56.97;35.30;;;4.50;99.90;;;;;;5112971;28;20115;-53
2022/01/25 02:51:34;;;;;;;60.28;35.20;;;4.60;99.90;;;;;;5112952;28;20041;-52
2022/01/25 02:54:01;;;;;;;55.60;34.15;;;4.60;99.90;;;;;;5094143;28;20111;-52
2022/01/25 02:56:30;;;;;;;56.47;34.47;;;4.60;99.90;;;;;;5112662;28;20035;-50
2022/01/25 02:58:56;;;;;;;57.13;34.08;;;4.60;99.90;;;;;;5112457;28;20187;-54
2022/01/25 03:01:23;;;;;;;62.60;35.17;;;4.60;99.90;;;;;;5112611;28;20036;-54
2022/01/25 03:03:49;;;;;;;59.85;33.50;;;4.60;99.90;;;;;;5112866;28;20122;-52
2022/01/25 03:06:16;;;;;;;58.63;35.10;;;4.60;99.90;;;;;;5112573;28;20085;-52
2022/01/25 03:08:42;;;;;;;60.60;35.72;;;4.70;99.90;;;;;;5112779;28;20043;-53
2022/01/25 03:11:07;;;;;;;57.45;35.38;;;4.60;99.90;;;;;;5112699;28;20039;-51
2022/01/25 03:13:47;;;;;;;56.80;34.50;;;4.70;99.90;;;;;;5112382;28;20036;-52
2022/01/25 03:16:20;;;;;;;59.15;35.03;;;4.70;99.90;;;;;;5112492;28;20035;-50
2022/01/25 03:18:48;;;;;;;57.35;34.97;;;4.70;99.90;;;;;;5112640;28;20035;-51
2022/01/25 03:23:47;;;;;;;56.88;35.10;;;4.60;99.90;;;;;;5112204;28;20546;-50
2022/01/25 03:26:13;;;;;;;56.70;34.25;;;4.60;99.90;;;;;;5112195;28;20092;-53
2022/01/25 03:28:39;;;;;;;60.15;36.20;;;4.60;99.90;;;;;;5094060;28;20127;-51
2022/01/25 03:31:05;;;;;;;58.00;34.58;;;4.60;99.90;;;;;;5112517;28;20071;-52
2022/01/25 03:33:30;;;;;;;59.17;35.38;;;4.60;99.90;;;;;;5112232;28;20093;-54
2022/01/25 03:35:56;;;;;;;56.78;34.53;;;4.70;99.90;;;;;;5112391;28;20557;-53
2022/01/25 03:38:22;;;;;;;59.28;35.35;;;4.70;99.90;;;;;;5111961;28;20044;-51
2022/01/25 03:40:48;;;;;;;62.55;36.38;;;4.70;99.90;;;;;;5112101;28;20078;-50
2022/01/25 03:43:15;;;;;;;57.50;36.58;;;4.70;99.90;;;;;;5112518;28;20039;-51
2022/01/25 03:45:45;;;;;;;66.10;36.80;;;4.70;99.90;;;;;;5093979;28;20047;-49
2022/01/25 03:50:42;;;;;;;64.15;37.17;;;4.70;99.90;;;;;;5112136;28;20126;-51
2022/01/25 03:53:09;;;;;;;59.08;36.40;;;4.70;99.90;;;;;;5112156;28;20043;-53
2022/01/25 03:55:35;;;;;;;60.30;35.00;;;4.60;99.90;;;;;;5112202;28;20036;-52
2022/01/25 03:58:01;;;;;;;61.97;37.55;;;4.60;99.90;;;;;;5094064;28;20092;-51
2022/01/25 04:00:27;;;;;;;58.15;35.75;;;4.70;99.90;;;;;;5112222;28;20043;-52
2022/01/25 04:03:02;;;;;;;59.60;36.97;;;4.60;99.90;;;;;;5111803;28;20040;-51
2022/01/25 04:05:48;;;;;;;61.88;37.13;;;4.70;99.90;;;;;;5111986;28;20543;-53
2022/01/25 04:08:15;;;;;;;59.25;36.33;;;4.70;99.90;;;;;;5093642;28;20481;-53
2022/01/25 04:10:41;;;;;;;58.38;36.15;;;4.70;99.90;;;;;;5112186;28;20044;-51
2022/01/25 04:13:08;;;;;;;58.10;35.85;;;4.60;99.90;;;;;;5111754;28;20047;-49
2022/01/25 04:15:34;;;;;;;61.03;36.45;;;4.60;99.90;;;;;;5111835;28;20039;-53
2022/01/25 04:18:17;;;;;;;64.50;38.40;;;4.60;99.90;;;;;;5111726;28;20461;-53
2022/01/25 04:20:54;;;;;;;57.60;36.35;;;4.60;99.90;;;;;;5111951;28;20075;-53
2022/01/25 04:26:04;;;;;;;64.18;36.67;;;4.60;99.90;;;;;;5111916;28;20131;-52
2022/01/25 04:28:29;;;;;;;62.08;37.25;;;4.60;99.90;;;;;;5111858;28;20115;-51
2022/01/25 04:30:55;;;;;;;61.13;34.80;;;4.60;99.90;;;;;;5111752;28;20055;-53
2022/01/25 04:33:25;;;;;;;62.83;36.72;;;4.60;99.90;;;;;;5111606;28;20108;-51
2022/01/25 04:49:27;;;;;;;59.35;34.45;;;4.50;99.90;;;;;;5115362;28;20048;-51
2022/01/25 04:51:59;;;;;;;61.85;35.30;;;4.50;99.90;;;;;;5115390;28;20381;-50
2022/01/25 04:57:23;;;;;;;59.85;35.15;;;4.40;99.90;;;;;;5115146;28;20054;-51
2022/01/25 05:02:34;;;;;;;63.08;35.67;;;4.40;99.90;;;;;;5115539;28;20038;-52
2022/01/25 05:05:07;;;;;;;62.40;35.97;;;4.50;99.90;;;;;;5114763;28;20044;-53
2022/01/25 05:07:41;;;;;;;63.60;35.63;;;4.40;99.90;;;;;;5115019;28;20103;-54
2022/01/25 05:10:08;;;;;;;62.00;34.55;;;4.40;99.90;;;;;;5114872;28;20131;-52
2022/01/25 05:15:21;;;;;;;58.10;34.80;;;4.40;99.90;;;;;;5114710;28;20400;-53
2022/01/25 05:17:59;;;;;;;66.15;35.85;;;4.40;99.90;;;;;;5114478;28;20039;-52
2022/01/25 05:23:09;;;;;;;57.72;34.53;;;4.40;99.90;;;;;;5114714;28;20048;-50
2022/01/25 05:25:34;;;;;;;62.72;35.35;;;4.40;99.90;;;;;;5114811;28;20092;-49
2022/01/25 05:28:00;;;;;;;58.88;34.88;;;4.40;99.90;;;;;;5114404;28;20115;-51
2022/01/25 05:30:26;;;;;;;62.17;35.40;;;4.40;99.90;;;;;;5114295;28;20044;-53
2022/01/25 05:32:51;;;;;;;60.63;35.85;;;4.40;99.90;;;;;;5114188;28;20062;-53
2022/01/25 05:35:17;;;;;;;65.63;36.22;;;4.40;99.90;;;;;;5114126;28;20157;-50
2022/01/25 05:37:43;;;;;;;66.72;35.60;;;4.50;99.90;;;;;;5114416;28;20035;-52
2022/01/25 05:40:17;;;;;;;60.03;35.72;;;4.40;99.90;;;;;;5114205;28;20036;-52
2022/01/25 05:43:50;;;;;;;58.38;35.05;;;4.40;99.90;;;;;;5114011;28;20576;-50
2022/01/25 05:45:50;;;;;;;67.70;36.10;;;4.40;99.90;;;;;;5113840;28;20507;-51
2022/01/25 05:48:16;;;;;;;58.72;35.20;;;4.50;99.90;;;;;;5113954;28;20493;-53
2022/01/25 05:50:41;;;;;;;62.45;35.10;;;4.50;99.90;;;;;;5113758;28;20047;-53
2022/01/25 05:53:07;;;;;;;64.32;35.65;;;4.40;99.90;;;;;;5095451;28;20423;-53
2022/01/25 05:55:33;;;;;;;60.35;34.33;;;4.40;99.90;;;;;;5113784;28;20423;-52
2022/01/25 05:57:58;;;;;;;65.40;36.97;;;4.40;99.90;;;;;;5113968;28;20492;-51
2022/01/25 06:00:24;;;;;;;61.45;35.00;;;4.40;99.90;;;;;;5113890;28;20041;-52
2022/01/25 06:02:54;;;;;;;64.00;36.80;;;4.40;99.90;;;;;;5114282;28;20152;-53
2022/01/25 06:05:20;;;;;;;68.18;35.47;;;4.50;99.90;;;;;;5113805;28;20051;-53
2022/01/25 06:07:45;;;;;;;61.22;35.17;;;4.40;99.90;;;;;;5113632;28;20039;-52
2022/01/25 06:10:11;;;;;;;61.08;36.83;;;4.40;99.90;;;;;;5113997;28;20050;-52
2022/01/25 06:12:37;;;;;;;61.15;35.30;;;4.40;99.90;;;;;;5113515;28;20031;-54
2022/01/25 06:15:03;;;;;;;64.90;35.72;;;4.50;99.90;;;;;;5113191;28;20039;-53
2022/01/25 06:17:28;;;;;;;65.95;36.97;;;4.40;99.90;;;;;;5113689;28;20036;-53
2022/01/25 06:19:54;;;;;;;68.68;36.13;;;4.40;99.90;;;;;;5113182;28;20035;-54
2022/01/25 06:22:20;;;;;;;63.58;37.03;;;4.50;99.90;;;;;;5113517;28;20126;-48
2022/01/25 06:24:45;;;;;;;67.38;36.60;;;4.50;99.90;;;;;;5113239;28;20039;-54
2022/01/25 06:27:11;;;;;;;65.63;37.33;;;4.50;99.90;;;;;;5113118;28;20103;-54
2022/01/25 06:29:37;;;;;;;67.60;36.55;;;4.50;99.90;;;;;;5113148;28;20043;-53
2022/01/25 06:32:03;;;;;;;72.45;37.38;;;4.40;99.90;;;;;;5113123;28;20120;-52
2022/01/25 06:34:28;;;;;;;69.35;39.22;;;4.40;99.90;;;;;;5113269;28;20051;-49
2022/01/25 06:36:54;;;;;;;70.70;37.90;;;4.50;99.90;;;;;;5113372;28;20111;-51
2022/01/25 06:39:20;;;;;;;61.55;36.60;;;4.50;99.90;;;;;;5113207;28;20048;-48
2022/01/25 06:41:46;;;;;;;64.25;36.50;;;4.40;99.90;;;;;;5113116;28;20036;-51
2022/01/25 06:44:12;;;;;;;63.85;36.63;;;4.50;99.90;;;;;;5094428;28;20051;-51
2022/01/25 06:46:38;;;;;;;66.65;35.47;;;4.50;99.90;;;;;;5112833;28;20039;-51
2022/01/25 06:49:04;;;;;;;65.53;37.10;;;4.60;99.90;;;;;;5112957;28;20044;-51
2022/01/25 06:51:30;;;;;;;63.03;36.67;;;4.60;99.90;;;;;;5113176;28;20047;-50
2022/01/25 06:53:56;;;;;;;64.70;37.55;;;4.50;99.90;;;;;;5105908;28;20316;-50
2022/01/25 06:56:22;;;;;;;63.42;36.97;;;4.60;99.90;;;;;;5112228;28;20128;-51
2022/01/25 06:58:48;;;;;;;60.65;35.50;;;4.60;99.90;;;;;;5110600;28;20046;-51
2022/01/25 07:01:14;;;;;;;60.97;36.38;;;4.60;99.90;;;;;;5112113;28;20035;-52
2022/01/25 07:03:39;;;;;;;66.75;36.92;;;4.60;99.90;;;;;;5111702;28;20032;-47
2022/01/25 07:06:05;;;;;;;62.50;36.40;;;4.60;99.90;;;;;;5112423;28;20397;-51
2022/01/25 07:08:31;;;;;;;62.08;36.78;;;4.60;99.90;;;;;;5112360;28;20036;-51
2022/01/25 07:10:56;;;;;;;66.05;35.65;;;4.60;99.90;;;;;;5112084;28;20043;-50
2022/01/25 07:13:22;;;;;;;63.42;36.17;;;4.60;99.90;;;;;;5112176;28;20039;-50
2022/01/25 07:15:48;;;;;;;65.45;36.05;;;4.60;99.90;;;;;;5112131;28;20032;-46
2022/01/25 07:18:15;;;;;;;60.15;35.47;;;4.60;99.90;;;;;;5112413;28;20481;-50
2022/01/25 07:20:41;;;;;;;64.05;36.75;;;4.60;99.90;;;;;;5112220;28;20044;-48
2022/01/25 07:23:06;;;;;;;65.28;36.20;;;4.60;99.90;;;;;;5112256;28;20055;-50
2022/01/25 07:25:32;;;;;;;61.35;36.50;;;4.60;99.90;;;;;;5112220;28;20382;-50
2022/01/25 07:27:58;;;;;;;67.38;38.33;;;4.60;99.90;;;;;;5112083;28;20039;-50
2022/01/25 07:30:24;;;;;;;68.40;37.85;;;4.60;99.90;;;;;;5112240;28;20046;-48
2022/01/25 07:32:50;;;;;;;69.78;38.58;;;4.60;99.90;;;;;;5111958;28;20094;-49
2022/01/25 07:35:16;;;;;;;60.95;36.40;;;4.60;99.90;;;;;;5112162;28;20051;-51
2022/01/25 07:37:42;;;;;;;64.93;37.05;;;4.60;99.90;;;;;;5111956;28;20047;-51
2022/01/25 07:40:10;;;;;;;63.08;36.80;;;4.60;99.90;;;;;;5112175;28;20594;-51
2022/01/25 07:42:39;;;;;;;67.68;38.22;;;4.60;99.90;;;;;;5111964;28;20051;-51
2022/01/25 07:45:10;;;;;;;64.60;38.15;;;4.60;99.90;;;;;;5093568;28;20051;-51
2022/01/25 07:47:37;;;;;;;66.25;37.08;;;4.60;99.90;;;;;;5112358;28;20082;-52
2022/01/25 07:50:05;;;;;;;66.85;38.63;;;4.60;99.90;;;;;;5111736;28;20036;-50
2022/01/25 07:52:31;;;;;;;63.23;35.73;;;4.50;99.90;;;;;;5111837;28;20073;-49
2022/01/25 07:54:57;;;;;;;65.70;38.30;;;4.60;99.90;;;;;;5111814;28;20040;-48
2022/01/25 07:57:24;;;;;;;65.75;37.50;;;4.50;99.90;;;;;;5112117;28;20042;-47
2022/01/25 07:59:51;;;;;;;64.25;37.70;;;4.60;99.90;;;;;;5111756;28;20035;-51
2022/01/25 08:02:18;;;;;;;64.68;37.35;;;4.60;99.90;;;;;;5111272;28;20533;-48
2022/01/25 08:04:45;;;;;;;73.32;39.40;;;4.60;99.90;;;;;;5111763;28;20486;-51
2022/01/25 08:07:12;;;;;;;65.30;37.42;;;4.50;99.90;;;;;;5111792;28;20042;-47
2022/01/25 08:09:38;;;;;;;64.13;37.17;;;4.50;99.90;;;;;;5111692;28;20047;-51
2022/01/25 08:12:04;;;;;;;63.60;37.13;;;4.60;99.90;;;;;;5111827;28;20039;-49
2022/01/25 08:14:31;;;;;;;67.57;37.88;;;4.60;99.90;;;;;;5113942;28;20043;-49
2022/01/25 08:16:57;;;;;;;71.57;38.78;;;4.60;99.90;;;;;;5115474;28;20032;-52
2022/01/25 08:19:23;;;;;;;69.00;39.13;;;4.60;99.90;;;;;;5114982;28;20047;-51
2022/01/25 08:21:49;;;;;;;69.22;38.03;;;4.60;99.90;;;;;;5115312;28;20047;-49
2022/01/25 08:24:20;;;;;;;69.45;38.45;;;4.60;99.90;;;;;;5115586;28;20044;-50
2022/01/25 08:26:47;;;;;;;69.93;39.83;;;4.60;99.90;;;;;;5097147;28;20035;-51
2022/01/25 08:29:13;;;;;;;68.45;39.85;;;4.50;99.90;;;;;;5096686;28;20131;-49
2022/01/25 08:31:39;;;;;;;65.13;37.92;;;4.60;99.90;;;;;;5115481;28;20046;-48
2022/01/25 08:34:07;;;;;;;65.22;39.25;;;4.60;99.90;;;;;;5096110;28;20047;-51
2022/01/25 08:36:33;;;;;;;70.93;38.90;;;4.50;99.90;;;;;;5115169;28;20388;-50
2022/01/25 08:39:00;;;;;;;71.13;40.08;;;4.50;99.90;;;;;;5115405;28;20040;-49
2022/01/25 08:41:27;;;;;;;72.65;39.85;;;4.50;99.90;;;;;;5115255;28;20082;-47
2022/01/25 08:43:53;;;;;;;74.28;39.35;;;4.60;99.90;;;;;;5114601;28;20101;-48
2022/01/25 08:46:20;;;;;;;72.65;39.17;;;4.50;99.90;;;;;;5115043;28;20093;-51
2022/01/25 08:48:46;;;;;;;69.15;39.45;;;4.60;99.90;;;;;;5115182;28;20040;-49
2022/01/25 08:51:15;;;;;;;69.70;38.05;;;4.60;99.90;;;;;;5115136;28;20052;-52
2022/01/25 08:53:41;;;;;;;;;;;4.60;99.90;;;;;;5115457;28;20089;-51
2022/01/25 08:56:08;;;;;;;74.93;38.17;;;4.60;99.90;;;;;;5114969;28;19915;-52
2022/01/25 08:58:34;;;;;;;69.18;37.63;;;4.60;99.90;;;;;;5114939;28;20040;-52
2022/01/25 09:01:00;;;;;;;72.38;38.38;;;4.60;99.90;;;;;;5115064;28;20046;-49
2022/01/25 09:03:26;;;;;;;70.55;39.90;;;4.60;99.90;;;;;;5115142;28;20480;-49
2022/01/25 09:05:53;;;;;;;74.75;39.95;;;4.60;99.90;;;;;;5114894;28;20118;-48
2022/01/25 09:08:21;;;;;;;69.47;37.72;;;4.60;99.90;;;;;;5114724;28;20035;-47
2022/01/25 09:10:52;;;;;;;74.72;39.05;;;4.60;99.90;;;;;;5096370;28;20058;-52
2022/01/25 09:13:19;;;;;;;65.10;37.85;;;4.70;99.90;;;;;;5114674;28;20105;-52
2022/01/25 09:15:45;;;;;;;70.90;38.58;;;4.70;99.90;;;;;;5114455;28;20123;-53
2022/01/25 09:18:12;;;;;;;70.95;39.33;;;4.70;99.90;;;;;;5114915;28;20045;-51
2022/01/25 09:20:38;;;;;;;72.25;39.10;;;4.60;99.90;;;;;;5114610;28;20035;-52
2022/01/25 09:23:04;;;;;;;71.70;38.70;;;4.60;99.90;;;;;;5114321;28;20035;-53
2022/01/25 09:25:31;;;;;;;70.35;38.42;;;4.60;99.90;;;;;;5113981;28;20061;-51
2022/01/25 09:28:14;;;;;;;71.35;37.70;;;4.60;99.90;;;;;;5114576;28;20046;-52
2022/01/25 09:30:41;;;;;;;70.05;38.15;;;4.60;99.90;;;;;;5064805;28;20048;-52
2022/01/25 09:33:10;;;;;;;70.38;39.05;;;4.60;99.90;;;;;;5096605;28;20048;-52
2022/01/25 09:35:36;;;;;;;64.53;37.53;;;4.60;99.90;;;;;;5078162;28;20436;-50
2022/01/25 09:38:03;;;;;;;67.55;38.10;;;4.60;99.90;;;;;;5113535;28;20055;-53
2022/01/25 09:40:28;;;;;;;71.43;39.65;;;4.60;99.90;;;;;;5113799;28;20478;-50
2022/01/25 09:42:56;;;;;;;71.82;39.10;;;4.60;99.90;;;;;;5113813;28;20051;-51
2022/01/25 09:45:23;;;;;;;67.55;38.63;;;4.60;99.90;;;;;;5096109;28;20043;-51
2022/01/25 09:47:51;;;;;;;70.57;39.65;;;4.60;99.90;;;;;;5113841;28;20054;-53
2022/01/25 09:50:21;;;;;;;72.45;39.63;;;4.60;99.90;;;;;;5096197;28;20786;-51
2022/01/25 09:52:47;;;;;;;71.88;39.13;;;4.60;99.90;;;;;;5114001;28;20138;-49
2022/01/25 09:55:17;;;;;;;71.68;39.70;;;4.60;99.90;;;;;;5093115;28;20202;-50
2022/01/25 09:57:43;;;;;;;66.63;36.97;;;4.60;99.90;;;;;;5093198;28;20075;-49
2022/01/25 10:00:12;;;;;;;70.20;38.70;;;4.60;99.90;;;;;;5093060;28;20042;-52
2022/01/25 10:02:49;;;;;;;76.05;40.67;;;4.60;99.90;;;;;;5093172;28;20067;-52
2022/01/25 10:05:34;;;;;;;69.05;38.50;;;4.60;99.90;;;;;;5093031;28;20059;-49
2022/01/25 10:08:18;;;;;;;75.40;38.65;;;4.50;99.90;;;;;;5093014;28;20433;-52
2022/01/25 10:10:50;;;;;;;69.05;38.92;;;4.60;99.90;;;;;;5093148;28;20051;-52
2022/01/25 10:13:19;;;;;;;72.43;38.53;;;4.60;99.90;;;;;;5075010;28;20115;-52
2022/01/25 10:15:45;;;;;;;72.47;39.45;;;4.60;99.90;;;;;;5092714;28;20040;-52
2022/01/25 10:18:12;;;;;;;72.15;37.88;;;4.60;99.90;;;;;;5084222;28;20082;-51
2022/01/25 10:20:41;;;;;;;76.35;38.47;;;4.60;99.90;;;;;;5046109;28;20098;-52
2022/01/25 10:23:30;;;;;;;70.85;38.10;;;4.60;99.90;;;;;;5067998;28;20040;-52
2022/01/25 10:25:59;;;;;;;71.82;38.28;;;4.60;99.90;;;;;;5092755;28;20036;-52
2022/01/25 10:28:30;;;;;;;71.10;37.80;;;4.60;99.90;;;;;;5092719;28;20054;-52
2022/01/25 10:30:58;;;;;;;74.97;39.70;;;4.60;99.90;;;;;;5092448;28;20040;-51
2022/01/25 10:33:38;;;;;;;72.10;37.42;;;4.70;99.90;;;;;;5097642;28;20059;-52
2022/01/25 10:36:19;;;;;;;68.45;38.00;;;4.70;99.90;;;;;;5094610;28;20131;-49
2022/01/25 10:38:47;;;;;;;75.10;40.35;;;4.70;99.90;;;;;;5093840;28;20042;-49
2022/01/25 10:41:35;;;;;;;75.93;41.20;;;4.70;99.90;;;;;;5112942;28;20042;-52
2022/01/25 10:44:01;;;;;;;75.65;39.38;;;4.70;99.90;;;;;;5112166;28;20047;-54
2022/01/25 10:46:29;;;;;;;72.70;41.20;;;4.70;99.90;;;;;;5112772;28;20054;-51
2022/01/25 10:48:57;;;;;;;70.40;38.53;;;4.60;99.90;;;;;;5113114;28;20040;-51
2022/01/25 10:51:35;;;;;;;74.88;39.38;;;4.70;99.90;;;;;;5077822;28;20405;-53
2022/01/25 10:54:20;;;;;;;73.28;39.63;;;4.70;99.90;;;;;;5112815;28;20036;-50
2022/01/25 10:56:56;;;;;;;67.00;38.28;;;4.70;99.90;;;;;;5112506;28;20493;-51
2022/01/25 10:59:29;;;;;;;68.85;38.00;;;4.70;99.90;;;;;;5094005;28;20563;-51
2022/01/25 11:02:01;;;;;;;77.35;41.08;;;4.70;99.90;;;;;;5094275;28;20047;-51
2022/01/25 11:04:34;;;;;;;73.50;37.58;;;4.70;99.90;;;;;;5109040;28;20127;-53
2022/01/25 11:07:01;;;;;;;74.97;38.47;;;4.70;99.90;;;;;;5086266;28;20039;-53
2022/01/25 11:09:34;;;;;;;73.85;40.33;;;4.70;99.90;;;;;;5132129;27;20466;-53
2022/01/25 11:12:01;;;;;;;75.85;39.15;;;4.70;99.90;;;;;;5132574;27;20039;-53
2022/01/25 11:17:11;;;;;;;71.68;38.67;;;4.70;99.90;;;;;;5132821;27;20092;-50
2022/01/25 11:19:37;;;;;;;71.82;39.03;;;4.60;99.90;;;;;;5132991;27;20430;-53
2022/01/25 11:22:04;;;;;;;74.60;39.83;;;4.60;99.90;;;;;;5132938;27;20106;-51
2022/01/25 11:24:32;;;;;;;78.10;39.45;;;4.60;99.90;;;;;;5132894;27;20035;-54
2022/01/25 11:27:02;;;;;;;77.57;41.85;;;4.70;99.90;;;;;;5132737;27;20049;-50
2022/01/25 11:29:28;;;;;;;80.90;40.78;;;4.70;99.90;;;;;;5132692;27;20035;-51
2022/01/25 11:32:01;;;;;;;73.32;40.40;;;4.70;99.90;;;;;;5132721;28;20104;-52
2022/01/25 11:34:33;;;;;;;75.72;38.85;;;4.70;99.90;;;;;;5113838;28;20514;-52
2022/01/25 11:37:02;;;;;;;75.07;39.28;;;4.70;99.90;;;;;;5132656;28;20027;-51
2022/01/25 11:39:28;;;;;;;76.82;38.83;;;4.70;99.90;;;;;;5132744;28;20035;-50
2022/01/25 11:42:24;;;;;;;81.32;41.00;;;4.70;99.90;;;;;;5114207;28;20031;-52
2022/01/25 11:44:52;;;;;;;78.40;40.97;;;4.70;99.90;;;;;;5130437;28;20055;-52
2022/01/25 11:47:21;;;;;;;78.53;40.47;;;4.70;99.90;;;;;;5132743;28;20113;-53
2022/01/25 11:50:01;;;;;;;;;;;4.70;99.90;;;;;;5135835;27;20046;-52
2022/01/25 11:52:29;;;;;;;75.82;37.75;;;4.70;99.90;;;;;;5136603;27;19971;-51
2022/01/25 11:55:16;;;;;;;77.43;40.22;;;4.70;99.90;;;;;;5136769;27;20088;-52
2022/01/25 11:58:08;;;;;;;75.80;40.45;;;4.70;99.90;;;;;;5136598;27;20493;-53
2022/01/25 12:00:51;;;;;;;76.70;40.53;;;4.70;99.90;;;;;;5135984;27;20047;-53
2022/01/25 12:03:28;;;;;;;76.28;41.20;;;4.70;99.90;;;;;;5136626;27;20039;-49
2022/01/25 12:06:07;;;;;;;78.60;39.72;;;4.70;99.90;;;;;;5136555;27;20114;-50
2022/01/25 12:11:28;;;;;;;71.55;39.00;;;4.80;99.90;;;;;;5136344;27;20055;-53
2022/01/25 12:14:22;;;;;;;78.68;41.55;;;4.70;99.90;;;;;;5136446;27;20458;-54
2022/01/25 12:16:57;;;;;;;75.18;40.03;;;4.70;99.90;;;;;;5136221;27;20122;-51
2022/01/25 12:19:51;;;;;;;82.68;41.55;;;4.70;99.90;;;;;;5136288;27;20031;-52
2022/01/25 12:22:27;;;;;;;75.25;39.38;;;4.70;99.90;;;;;;5136176;27;20091;-52
2022/01/25 12:25:25;;;;;;;88.50;41.88;;;4.70;99.90;;;;;;5136213;27;20085;-49
2022/01/25 12:27:54;;;;;;;85.90;41.63;;;4.70;99.90;;;;;;5117881;27;20118;-52
2022/01/25 12:30:26;;;;;;;74.82;38.75;;;4.70;99.90;;;;;;5117356;27;20155;-52
2022/01/25 12:33:00;;;;;;;73.47;39.15;;;4.70;99.90;;;;;;5135738;27;20438;-51
2022/01/25 12:35:50;;;;;;;76.43;40.05;;;4.80;99.90;;;;;;5135596;27;20047;-52
2022/01/25 12:38:42;;;;;;;79.40;40.13;;;4.70;99.90;;;;;;5135763;27;20086;-51
2022/01/25 12:41:22;;;;;;;72.47;38.78;;;4.70;99.90;;;;;;5136011;27;20045;-50
2022/01/25 12:43:59;;;;;;;78.38;40.88;;;4.70;99.90;;;;;;5135606;27;20546;-49
2022/01/25 12:46:28;;;;;;;75.40;39.40;;;4.70;99.90;;;;;;5135683;27;20042;-53
2022/01/25 12:48:56;;;;;;;80.85;40.72;;;4.70;99.90;;;;;;5135466;27;20431;-51
2022/01/25 12:51:28;;;;;;;77.30;40.72;;;4.70;99.90;;;;;;5135439;27;20475;-53
2022/01/25 12:53:57;;;;;;;77.45;39.88;;;4.70;99.90;;;;;;5135313;27;20031;-51
2022/01/25 12:56:32;;;;;;;81.97;41.08;;;4.70;99.90;;;;;;5135462;27;20366;-51
2022/01/25 12:59:04;;;;;;;81.05;40.78;;;4.70;99.90;;;;;;5135642;27;20095;-54
2022/01/25 13:01:35;;;;;;;81.38;41.58;;;4.60;99.90;;;;;;5134249;27;20043;-54
2022/01/25 13:04:03;;;;;;;79.60;41.72;;;4.60;99.90;;;;;;5135472;27;20455;-51
2022/01/25 13:06:37;;;;;;;80.60;41.38;;;4.70;99.90;;;;;;5115776;27;20108;-53
2022/01/25 13:17:02;;;;;;;81.35;40.75;;;4.70;99.90;;;;;;5108514;28;20032;-52
2022/01/25 13:19:41;;;;;;;80.28;41.33;;;4.70;99.90;;;;;;5107935;28;20538;-52
2022/01/25 13:22:14;;;;;;;77.95;40.63;;;4.60;99.90;;;;;;5114018;28;20058;-51
2022/01/25 13:24:56;;;;;;;83.72;42.25;;;4.60;99.90;;;;;;5111721;28;20028;-52
2022/01/25 13:27:22;;;;;;;83.47;40.97;;;4.60;99.90;;;;;;5112605;28;20120;-52
2022/01/25 13:32:50;;;;;;;81.43;39.78;;;4.60;99.90;;;;;;5112939;28;20035;-51
2022/01/25 13:35:26;;;;;;;85.50;40.95;;;4.60;99.90;;;;;;5073282;28;20050;-49
2022/01/25 13:38:17;;;;;;;81.75;41.45;;;4.70;99.90;;;;;;5113519;28;20054;-54
2022/01/25 13:46:09;;;;;;;84.10;40.80;;;4.70;99.90;;;;;;5094818;28;20040;-51
2022/01/25 13:48:37;;;;;;;80.47;40.17;;;4.70;99.90;;;;;;5106729;27;20032;-62
2022/01/25 13:51:12;;;;;;;82.97;41.30;;;4.70;99.90;;;;;;5071071;28;20042;-63
2022/01/25 13:53:40;;;;;;;84.63;40.55;;;4.70;99.90;;;;;;5078525;28;20114;-62
2022/01/25 13:56:11;;;;;;;78.67;40.40;;;4.70;99.90;;;;;;5088379;28;20358;-52
2022/01/25 13:58:40;;;;;;;78.15;39.03;;;4.70;99.90;;;;;;5110991;27;20368;-48
2022/01/25 14:01:07;;;;;;;;;;;4.60;99.90;;;;;;5111124;28;20546;-48
2022/01/25 14:03:38;;;;;;;79.65;39.95;;;4.60;99.90;;;;;;5113517;28;19916;-55
2022/01/25 14:06:34;;;;;;;79.53;39.53;;;4.70;99.90;;;;;;5113015;28;20381;-50
2022/01/25 14:09:09;;;;;;;76.43;38.55;;;4.60;99.90;;;;;;5109663;28;20074;-52
2022/01/25 14:11:54;;;;;;;78.47;39.13;;;4.60;99.90;;;;;;5108382;28;20067;-53
2022/01/25 14:25:40;;;;;;;81.18;39.65;;;4.60;99.90;;;;;;5093338;28;20044;-52
2022/01/25 14:28:10;;;;;;;80.80;41.05;;;4.60;99.90;;;;;;5092970;28;20489;-52
2022/01/25 14:30:40;;;;;;;76.90;37.97;;;4.60;99.90;;;;;;5092615;28;20052;-51
2022/01/25 14:33:19;;;;;;;80.50;39.83;;;4.60;99.90;;;;;;5092883;28;20440;-52
2022/01/25 14:35:48;;;;;;;83.80;40.58;;;4.60;99.90;;;;;;5072523;28;20036;-54
2022/01/25 14:38:28;;;;;;;78.43;38.80;;;4.60;99.90;;;;;;5072366;28;20390;-50
2022/01/25 14:41:16;;;;;;;87.93;40.83;;;4.60;99.90;;;;;;5072273;28;20029;-51
2022/01/25 14:43:50;;;;;;;84.32;40.00;;;4.50;99.90;;;;;;5072028;28;20032;-50
2022/01/25 14:46:25;;;;;;;79.55;38.55;;;4.50;99.90;;;;;;5072140;28;20086;-51
2022/01/25 14:49:14;;;;;;;78.75;40.47;;;4.50;99.90;;;;;;5054005;28;20102;-53
2022/01/25 14:51:44;;;;;;;78.07;40.40;;;4.60;99.90;;;;;;5071944;28;20045;-53
2022/01/25 14:54:14;;;;;;;79.65;39.13;;;4.50;99.90;;;;;;5071963;28;20475;-53
2022/01/25 14:56:47;;;;;;;74.88;39.35;;;4.60;99.90;;;;;;5072137;28;20039;-51
2022/01/25 14:59:25;;;;;;;77.57;38.95;;;4.50;99.90;;;;;;5072069;28;20040;-53
2022/01/25 15:01:57;;;;;;;79.60;39.67;;;4.70;99.90;;;;;;5071942;28;20044;-53